CheckWX is a tool to help pilots better visualize weather data.  It is not intended as a substitute for an official pre-flight weather briefing.

05:15:47 UTC

EGWU METAR
RAF Northolt Airport
London, United Kingdom
Current

1 hour ago

EGWU 230350Z AUTO 17001KT 9999 // NCD 13/13 Q1025
Observed
Aug-23 @ 03:50 UTC
Wind
  • 170° at 1 KTS
Visibility
10,000+ meters
Flight Rules
VFR
Cloud Levels
  • Clear skies
Temperature
13°C / 55°F
Dewpoint
13°C / 55°F
Humidity
100%
Altimeter
30.27" Hg
Pressure
1024.92 hPa
Previous

2 hours ago

EGWU 230250Z AUTO 32002KT 9999 // NCD 14/13 Q1025
Observed
Aug-23 @ 02:50 UTC
Wind
  • 320° at 2 KTS
Visibility
10,000+ meters
Flight Rules
VFR
Cloud Levels
  • Clear skies
Temperature
14°C / 57°F
Dewpoint
13°C / 55°F
Humidity
94%
Altimeter
30.27" Hg
Pressure
1024.92 hPa
Previous

3 hours ago

EGWU 230150Z AUTO 29003KT 9999 // NCD 15/13 Q1025
Observed
Aug-23 @ 01:50 UTC
Wind
  • 290° at 3 KTS
Visibility
10,000+ meters
Flight Rules
VFR
Cloud Levels
  • Clear skies
Temperature
15°C / 59°F
Dewpoint
13°C / 55°F
Humidity
88%
Altimeter
30.27" Hg
Pressure
1024.92 hPa